Latest Weather Observations for Newdegate

IDW60801

Issued at 10:02 am WST Tuesday 7 July 2015 (issued every 30 minutes, with the page automatically refreshed every 10 minutes)

About weather observations | Map of weather stations | Latest weather observations for WA | Other Formats
Station Details ID: 010692 Name: NEWDEGATE RESEARCH STATION Lat: -33.11 Lon: 118.84 Height: 320.0 m
Data from the previous 72 hours. | See also: Recent months at Newdegate
Date/Time
WST
Temp
°C
App
Temp
°C
Dew
Point
Rel
Hum
%
Delta-T
°C
Wind Press
QNH
hPa
Press
MSL
hPa
Rain
since 9 am
mm
Dir
 
Spd
km/h
Gust
km/h
Spd
kts
Gust
kts
07/10:00am 14.0 10.6 10.6 80 1.8 NNW 19 24 10 13 1019.6 1019.9 0.0
07/09:30am 12.7 9.2 10.8 88 1.0 NNW 20 24 11 13 1019.6 1019.9 0.0
07/09:00am 12.3 8.8 11.0 92 0.7 NNW 20 26 11 14 1019.6 1019.9 0.4
07/08:30am 11.8 9.6 10.7 93 0.6 NNW 13 17 7 9 1019.6 1019.9 0.4
07/08:00am 11.1 9.4 10.0 93 0.6 NNW 9 13 5 7 1019.8 1020.1 0.4
07/07:30am 10.6 8.8 9.4 92 0.6 NW 9 11 5 6 1019.7 1020.0 0.4
07/07:00am 10.2 8.7 9.0 92 0.6 NW 7 9 4 5 1019.5 1019.8 0.4
07/06:30am 11.2 8.8 10.0 92 0.6 NW 13 22 7 12 1019.4 1019.7 0.4
07/06:00am 11.5 9.6 10.4 93 0.6 WNW 11 19 6 10 1019.2 1019.5 0.4
07/05:30am 11.7 10.2 10.4 92 0.7 W 9 17 5 9 1019.0 1019.3 0.4
07/05:00am 11.6 10.0 10.3 92 0.7 WNW 9 13 5 7 1018.8 1019.2 0.4
07/04:30am 11.3 9.3 10.0 92 0.7 WNW 11 17 6 9 1018.6 1019.0 0.4
07/04:00am 11.3 9.6 10.0 92 0.7 WNW 9 15 5 8 1018.5 1018.8 0.4
07/03:30am 10.9 9.5 9.5 91 0.7 W 7 11 4 6 1018.8 1019.2 0.4
07/03:00am 11.7 9.4 10.3 91 0.7 WNW 13 20 7 11 1019.2 1019.5 0.4
07/02:30am 12.2 10.4 10.8 91 0.7 WNW 11 20 6 11 1019.3 1019.6 0.2
07/02:00am 11.3 10.2 9.9 91 0.7 WNW 6 7 3 4 1019.3 1019.6 0.2
07/01:30am 11.8 10.6 10.2 90 0.8 WNW 7 13 4 7 1019.4 1019.7 0.2
07/01:00am 11.7 10.4 10.1 90 0.8 NW 7 11 4 6 1019.5 1019.8 0.2
07/12:30am 11.6 9.6 10.0 90 0.8 NNW 11 13 6 7 1019.5 1019.8 0.2
07/12:00am 12.2 10.7 10.6 90 0.8 NW 9 11 5 6 1019.7 1020.0 0.2
 
Date/Time
WST
Temp
°C
App
Temp
°C
Dew
Point
Rel
Hum
%
Delta-T
°C
Wind Press
QNH
hPa
Press
MSL
hPa
Rain
since 9 am
mm
Dir
 
Spd
km/h
Gust
km/h
Spd
kts
Gust
kts
06/11:30pm 12.8 10.7 11.2 90 0.9 WNW 13 20 7 11 1020.0 1020.3 0.2
06/11:00pm 12.8 11.0 10.7 87 1.1 WNW 11 15 6 8 1020.2 1020.5 0.2
06/10:30pm 12.8 10.9 10.5 86 1.2 NW 11 22 6 12 1020.3 1020.6 0.2
06/10:00pm 12.4 11.3 10.0 85 1.2 WNW 6 7 3 4 1020.5 1020.8 0.2
06/09:30pm 12.7 11.5 10.2 85 1.3 WNW 7 11 4 6 1020.4 1020.7 0.2
06/09:00pm 12.7 10.6 9.7 82 1.6 NW 11 17 6 9 1020.7 1021.0 0.2
06/08:30pm 12.5 11.1 9.5 82 1.5 NW 7 9 4 5 1020.6 1020.9 0.2
06/08:00pm 12.4 10.9 9.2 81 1.6 NW 7 9 4 5 1020.7 1021.0 0.2
06/07:30pm 12.8 11.4 9.4 80 1.8 NW 7 9 4 5 1020.6 1020.9 0.2
06/07:00pm 12.4 10.8 8.9 79 1.8 NW 7 9 4 5 1020.5 1020.8 0.2
06/06:30pm 13.2 11.9 9.3 77 2.0 NNW 6 9 3 5 1020.3 1020.6 0.2
06/06:00pm 13.6 12.4 9.5 76 2.1 NW 6 7 3 4 1020.3 1020.6 0.2
06/05:30pm 13.8 12.0 9.3 74 2.3 NW 9 13 5 7 1020.2 1020.5 0.2
06/05:00pm 14.3 11.6 9.1 71 2.7 NNW 13 17 7 9 1020.0 1020.3 0.2
06/04:30pm 14.5 12.2 9.1 70 2.8 NNW 11 15 6 8 1020.0 1020.3 0.2
06/04:00pm 14.7 11.6 8.9 68 3.0 NNW 15 20 8 11 1020.0 1020.3 0.2
06/03:30pm 14.8 11.7 8.7 67 3.1 NNW 15 22 8 12 1020.1 1020.4 0.2
06/03:00pm 15.1 12.0 9.0 67 3.2 NNW 15 20 8 11 1020.1 1020.4 0.2
06/02:30pm 15.2 12.1 8.9 66 3.3 NNW 15 20 8 11 1020.0 1020.3 0.2
06/02:00pm 15.2 12.2 9.1 67 3.2 NNW 15 20 8 11 1020.1 1020.4 0.2
06/01:30pm 14.4 12.3 9.6 73 2.5 NNW 11 17 6 9 1020.5 1020.8 0.2
06/01:00pm 12.3 9.2 8.8 79 1.8 N 15 22 8 12 1020.9 1021.2 0.2
06/12:30pm 11.9 8.9 9.1 83 1.4 NNW 15 19 8 10 1021.5 1021.9 0.2
06/12:00pm 11.8 9.0 9.9 88 1.0 N 15 19 8 10 1021.8 1022.2 0.2
06/11:30am 11.4 9.8 10.3 93 0.6 N 9 13 5 7 1022.3 1022.6 0.2
06/11:00am 10.9 9.8 9.8 93 0.6 N 6 11 3 6 1022.7 1023.0 0.2
06/10:30am 9.4 7.9 8.3 93 0.5 N 6 7 3 4 1022.9 1023.2 0.0
06/10:00am 8.6 7.3 7.5 93 0.5 N 4 6 2 3 1023.1 1023.4 0.0
06/09:30am 7.5 6.3 6.4 93 0.5 NNW 2 4 1 2 1023.0 1023.3 0.0
06/09:00am 6.6 4.8 5.6 93 0.5 N 4 6 2 3 1022.9 1023.2 0.2
06/08:30am 5.6 4.0 4.6 93 0.4 NW 2 4 1 2 1022.7 1023.0 0.2
06/08:00am 5.2 3.2 4.2 93 0.4 NNW 4 4 2 2 1022.5 1022.8 0.2
06/07:30am 5.1 3.0 3.9 92 0.5 NNW 4 6 2 3 1021.9 1022.3 0.2
06/07:00am 5.5 4.2 4.3 92 0.5 CALM 0 0 0 0 1021.9 1022.3 0.2
06/06:30am 5.5 3.9 4.3 92 0.5 NW 2 2 1 1 1021.7 1022.1 0.2
06/06:00am 5.6 4.0 4.4 92 0.5 NW 2 2 1 1 1021.6 1022.0 0.2
06/05:30am 6.5 5.4 5.3 92 0.5 CALM 0 0 0 0 1021.4 1021.8 0.2
06/05:00am 6.8 5.8 5.6 92 0.5 CALM 0 0 0 0 1021.1 1021.4 0.2
06/04:30am 6.7 5.7 5.5 92 0.5 CALM 0 0 0 0 1021.1 1021.4 0.0
06/04:00am 6.9 5.9 5.7 92 0.5 CALM 0 0 0 0 1021.1 1021.4 0.0
06/03:30am 7.1 6.2 5.9 92 0.5 CALM 0 0 0 0 1021.2 1021.5 0.0
06/03:00am 7.0 6.0 5.8 92 0.5 CALM 0 0 0 0 1021.2 1021.5 0.0
06/02:30am 6.8 5.8 5.6 92 0.5 CALM 0 0 0 0 1021.1 1021.4 0.0
06/02:00am 6.3 5.2 5.1 92 0.5 CALM 0 0 0 0 1021.1 1021.4 0.0
06/01:30am 5.3 4.0 4.0 91 0.6 CALM 0 0 0 0 1021.3 1021.7 0.0
06/01:00am 5.2 3.9 3.9 91 0.6 CALM 0 0 0 0 1021.2 1021.5 0.0
06/12:30am 5.4 4.1 4.1 91 0.6 CALM 0 0 0 0 1021.2 1021.5 0.0
06/12:00am 5.7 4.4 4.3 91 0.6 CALM 0 0 0 0 1021.3 1021.7 0.0
 
Date/Time
WST
Temp
°C
App
Temp
°C
Dew
Point
Rel
Hum
%
Delta-T
°C
Wind Press
QNH
hPa
Press
MSL
hPa
Rain
since 9 am
mm
Dir
 
Spd
km/h
Gust
km/h
Spd
kts
Gust
kts
05/11:30pm 6.1 4.5 4.6 90 0.7 W 2 6 1 3 1021.3 1021.7 0.0
05/11:00pm 6.4 5.3 4.9 90 0.7 CALM 0 0 0 0 1021.3 1021.7 0.0
05/10:30pm 6.4 5.3 4.9 90 0.7 CALM 0 0 0 0 1021.5 1021.9 0.0
05/10:00pm 8.1 7.3 6.6 90 0.7 CALM 0 0 0 0 1021.5 1021.9 0.0
05/09:30pm 7.9 6.6 6.0 88 0.9 W 2 4 1 2 1021.5 1021.9 0.0
05/09:00pm 10.2 8.7 8.5 89 0.8 W 6 6 3 3 1021.6 1022.0 0.0
05/08:30pm 11.0 9.7 9.1 88 1.0 WNW 6 7 3 4 1021.5 1021.9 0.0
05/08:00pm 11.6 10.8 9.7 88 1.0 WNW 4 6 2 3 1021.3 1021.7 0.0
05/07:30pm 11.9 11.1 9.6 86 1.2 WNW 4 6 2 3 1021.1 1021.4 0.0
05/07:00pm 12.5 11.8 10.2 86 1.2 NW 4 6 2 3 1021.0 1021.3 0.0
05/06:30pm 12.7 11.7 10.2 85 1.3 NW 6 7 3 4 1021.0 1021.3 0.0
05/06:00pm 12.8 12.5 10.2 84 1.4 W 2 6 1 3 1020.7 1021.0 0.0
05/05:30pm 12.8 12.0 9.8 82 1.6 W 4 6 2 3 1020.4 1020.7 0.0
05/05:00pm 13.5 12.4 10.1 80 1.8 WNW 6 7 3 4 1020.4 1020.7 0.0
05/04:30pm 13.8 12.7 10.0 78 2.0 W 6 11 3 6 1020.3 1020.6 0.0
05/04:00pm 13.9 12.8 10.5 80 1.8 WNW 7 9 4 5 1020.2 1020.5 0.0
05/03:30pm 14.0 12.4 10.2 78 2.0 WNW 9 13 5 7 1020.1 1020.4 0.0
05/03:00pm 14.1 12.4 9.9 76 2.2 WNW 9 13 5 7 1020.1 1020.4 0.0
05/02:30pm 13.8 12.3 10.4 80 1.8 WNW 9 15 5 8 1020.2 1020.5 0.0
05/02:00pm 13.9 11.7 9.5 75 2.3 NW 11 15 6 8 1020.1 1020.4 0.0
05/01:30pm 14.4 12.3 9.8 74 2.4 NW 11 13 6 7 1020.1 1020.4 0.0
05/01:00pm 14.0 12.3 10.0 77 2.1 NW 9 15 5 8 1020.3 1020.6 0.0
05/12:30pm 13.9 12.6 10.1 78 2.0 NW 7 11 4 6 1020.7 1021.0 0.0
05/12:00pm 13.3 11.6 9.7 79 1.9 NNW 9 13 5 7 1021.0 1021.3 0.0
05/11:30am 13.4 12.3 9.8 79 1.9 NW 6 6 3 3 1021.3 1021.7 0.0
05/11:00am 12.8 11.5 10.0 83 1.5 WNW 7 9 4 5 1021.7 1022.1 0.0
05/10:30am 12.7 11.4 10.1 84 1.4 W 7 9 4 5 1021.8 1022.2 0.0
05/10:00am 12.2 11.5 10.1 87 1.1 WSW 4 6 2 3 1022.0 1022.4 0.0
05/09:30am 11.7 11.0 9.9 89 0.9 W 4 7 2 4 1021.8 1022.2 0.0
05/09:00am 11.5 10.4 9.9 90 0.8 W 6 9 3 5 1021.7 1022.1 0.2
05/08:30am 11.3 10.2 9.9 91 0.7 WSW 6 9 3 5 1021.6 1022.0 0.2
05/08:00am 10.7 9.4 9.3 91 0.7 W 6 9 3 5 1021.2 1021.5 0.2
05/07:30am 10.3 8.9 8.7 90 0.8 WSW 6 9 3 5 1020.9 1021.2 0.2
05/07:00am 10.5 8.9 8.9 90 0.8 WSW 7 9 4 5 1020.8 1021.1 0.2
05/06:30am 10.6 9.0 8.9 89 0.9 WSW 7 9 4 5 1020.5 1020.8 0.0
05/06:00am 10.6 9.0 8.9 89 0.9 WSW 7 13 4 7 1020.2 1020.5 0.0
05/05:30am 10.6 8.7 8.9 89 0.9 W 9 13 5 7 1020.0 1020.3 0.0
05/05:00am 10.3 8.3 8.7 90 0.8 W 9 13 5 7 1020.0 1020.3 0.0
05/04:30am 9.6 7.1 8.0 90 0.8 W 11 13 6 7 1019.7 1020.0 0.0
05/04:00am 9.3 7.0 7.6 89 0.8 WNW 9 11 5 6 1019.8 1020.1 0.0
05/03:30am 9.3 7.4 7.6 89 0.8 WNW 7 9 4 5 1019.8 1020.1 0.0
05/03:00am 8.8 6.8 6.9 88 0.9 WNW 7 11 4 6 1019.9 1020.2 0.0
05/02:30am 9.0 7.0 7.1 88 0.9 W 7 11 4 6 1020.0 1020.3 0.0
05/02:00am 8.9 6.5 7.0 88 0.9 W 9 13 5 7 1020.1 1020.4 0.0
05/01:30am 9.2 7.2 7.2 87 1.0 W 7 11 4 6 1020.0 1020.3 0.0
05/01:00am 9.4 7.1 7.3 87 1.0 W 9 13 5 7 1020.1 1020.4 0.0
05/12:30am 9.9 7.7 7.8 87 1.0 W 9 17 5 9 1020.0 1020.3 0.0
05/12:00am 10.2 7.7 8.1 87 1.0 W 11 15 6 8 1020.2 1020.5 0.0
 
Date/Time
WST
Temp
°C
App
Temp
°C
Dew
Point
Rel
Hum
%
Delta-T
°C
Wind Press
QNH
hPa
Press
MSL
hPa
Rain
since 9 am
mm
Dir
 
Spd
km/h
Gust
km/h
Spd
kts
Gust
kts
04/11:30pm 10.2 9.1 8.3 88 0.9 W 4 7 2 4 1020.1 1020.4 0.0
04/11:00pm 10.8 8.9 9.1 89 0.9 W 9 15 5 8 1020.1 1020.4 0.0
04/10:30pm 10.7 9.2 9.0 89 0.9 WNW 7 9 4 5 1020.2 1020.5 0.0
04/10:00pm 10.7 9.3 9.0 89 0.9 WNW 6 9 3 5 1020.3 1020.6 0.0
04/09:30pm 10.4 8.9 8.5 88 0.9 W 6 7 3 4 1020.2 1020.5 0.0
04/09:00pm 10.8 9.4 8.7 87 1.1 WNW 6 7 3 4 1020.2 1020.5 0.0
04/08:30pm 11.4 10.0 9.0 85 1.2 WNW 6 9 3 5 1020.3 1020.6 0.0
04/08:00pm 12.4 11.2 9.6 83 1.4 WNW 6 9 3 5 1020.3 1020.6 0.0
04/07:30pm 13.2 12.2 10.2 82 1.6 WNW 6 9 3 5 1020.3 1020.6 0.0
04/07:00pm 13.4 12.2 10.2 81 1.7 WNW 7 9 4 5 1020.2 1020.5 0.0
04/06:30pm 13.6 12.4 10.2 80 1.8 WNW 7 9 4 5 1020.0 1020.3 0.0
04/06:00pm 14.1 12.5 10.1 77 2.1 WNW 9 13 5 7 1019.7 1020.0 0.0
04/05:30pm 14.7 12.8 9.1 69 2.9 NW 9 17 5 9 1019.6 1019.9 0.0
04/05:00pm 15.1 13.5 8.8 66 3.3 NW 7 11 4 6 1019.4 1019.7 0.0
04/04:30pm 16.7 14.6 9.6 63 3.8 NNW 11 15 6 8 1019.4 1019.7 0.0
04/04:00pm 17.9 14.9 9.3 57 4.6 NW 15 20 8 11 1019.5 1019.8 0.0
04/03:30pm 18.0 14.5 8.8 55 4.8 NW 17 24 9 13 1019.6 1019.9 0.0
04/03:00pm 17.3 14.1 8.4 56 4.6 WNW 15 20 8 11 1019.8 1020.1 0.0
04/02:30pm 18.5 14.8 7.9 50 5.5 WNW 17 28 9 15 1019.6 1019.9 0.0
04/02:00pm 18.8 15.8 9.3 54 5.1 WNW 15 24 8 13 1019.6 1019.9 0.0
04/01:30pm 17.9 15.3 9.3 57 4.6 WSW 13 19 7 10 1019.9 1020.2 0.0
04/01:00pm 16.4 13.7 8.9 61 3.9 W 13 20 7 11 1020.4 1020.7 0.0
04/12:30pm 16.6 13.7 9.5 63 3.8 WNW 15 26 8 14 1020.8 1021.1 0.0
04/12:00pm 16.2 13.0 9.8 66 3.4 WNW 17 22 9 12 1021.2 1021.5 0.0
04/11:30am 16.2 14.2 11.4 73 2.6 W 13 19 7 10 1021.6 1022.0 0.0
04/11:00am 15.4 13.3 11.2 76 2.3 W 13 19 7 10 1022.1 1022.5 0.0
04/10:30am 15.0 13.1 11.8 81 1.8 WNW 13 19 7 10 1022.4 1022.7 0.0

Other Formats:

Comma delimited format used in spreadsheet applications
http://www.bom.gov.au/fwo/IDW60801/IDW60801.94628.axf

JavaScript Object Notation format (JSON) in row-major order
http://www.bom.gov.au/fwo/IDW60801/IDW60801.94628.json